KGFA/GFA METAR and TAF weather

Enter ICAO airport designator
Station Type Date Time Source
KGFA METAR 2019/04/25 10:58 UTC NOAA

KGFA 251058Z AUTO 33004KT 10SM OVC050 03/M03 A3030 RMK AO2 SLP279 T00301030 $


Station Type Date Time Source
KGFA Decoded METAR 2019/04/25 10:58 UTC NOAA

Malmstrom Air Force Base, MT, United States (KGFA) 47-30N 111-11W
Apr 25, 2019 - 06:58 AM EDT / 2019.04.25 1058 UTC
Wind: from the NNW (330 degrees) at 5 MPH (4 KT):0
Visibility: 10 mile(s):0
Sky conditions: overcast
Temperature: 37.4 F (3.0 C)
Dew Point: 26.6 F (-3.0 C)
Relative Humidity: 64%
Pressure (altimeter): 30.3 in. Hg (1026 hPa)
ob: KGFA 251058Z AUTO 33004KT 10SM OVC050 03/M03 A3030 RMK AO2 SLP279 T00301030
cycle: 11

Station Type Date Time Source
KGFA TAF 2019/04/25 11:59 UTC NOAA

TAF KGFA 251055Z 2511/2617 VRB06KT 9999 SCT080 QNH3005INS
BECMG 2517/2518 07009KT 9999 SCT090 QNH2993INS TX15/2519Z TN01/2513Z

Example: see airport list